Time;durP1;ratioP1;P1;durP2;ratioP2;P2;SDS_P1;SDS_P2;PMS_P1;PMS_P2;Temp;Humidity;BMP_temperature;BMP_pressure;BME280_temperature;BME280_humidity;BME280_pressure;Samples;Min_cycle;Max_cycle;Signal;HPM_P1;HPM_P2
2021/07/27 00:01:40;;;;;;;8.38;6.80;;;;;;;27.14;42.00;100806.88;5033935;28;20182;-90
2021/07/27 00:04:06;;;;;;;9.63;6.95;;;;;;;27.13;42.07;100804.50;5032382;28;20029;-90
2021/07/27 00:06:32;;;;;;;10.10;7.07;;;;;;;27.13;42.16;100794.09;5032522;28;20464;-82
2021/07/27 00:08:58;;;;;;;9.68;7.82;;;;;;;27.06;42.52;100802.63;5032585;28;20139;-74
2021/07/27 00:11:24;;;;;;;13.00;9.45;;;;;;;26.76;43.03;100795.81;5033330;28;20104;-76
2021/07/27 00:13:49;;;;;;;9.25;8.35;;;;;;;26.64;43.17;100799.19;5033739;28;20032;-76
2021/07/27 00:16:15;;;;;;;10.68;8.85;;;;;;;26.55;43.82;100796.13;5033874;28;20025;-74
2021/07/27 00:18:41;;;;;;;12.50;9.73;;;;;;;26.44;44.33;100804.63;5033825;28;20029;-75
2021/07/27 00:21:06;;;;;;;12.93;9.27;;;;;;;26.59;44.06;100796.84;5032360;28;20033;-76
2021/07/27 00:23:34;;;;;;;12.55;10.30;;;;;;;26.63;43.91;100796.81;5033685;28;20021;-91
2021/07/27 00:25:59;;;;;;;11.75;10.10;;;;;;;26.57;44.09;100792.88;5033761;28;20032;-76
2021/07/27 00:28:25;;;;;;;12.00;9.88;;;;;;;26.49;44.27;100800.59;5033690;28;20102;-76
2021/07/27 00:30:51;;;;;;;10.95;9.32;;;;;;;26.54;43.97;100794.53;5033115;28;20017;-75
2021/07/27 00:33:17;;;;;;;11.00;9.80;;;;;;;26.52;44.24;100788.53;5033673;28;20095;-91
2021/07/27 00:35:44;;;;;;;11.68;9.10;;;;;;;26.55;44.02;100796.91;5032399;28;20047;-76
2021/07/27 00:38:12;;;;;;;12.10;9.70;;;;;;;26.62;44.15;100795.22;5033346;28;20095;-76
2021/07/27 00:40:39;;;;;;;11.23;8.95;;;;;;;26.64;44.09;100793.56;5033415;28;20021;-75
2021/07/27 00:43:07;;;;;;;10.55;9.45;;;;;;;26.62;44.04;100795.22;5033412;28;20025;-76
2021/07/27 00:45:33;;;;;;;11.32;10.13;;;;;;;26.55;44.31;100791.31;5033367;28;20049;-75
2021/07/27 00:48:00;;;;;;;11.13;9.00;;;;;;;26.52;43.95;100789.31;5033309;28;20526;-76
2021/07/27 00:50:27;;;;;;;10.60;8.07;;;;;;;26.56;44.24;100786.50;5048607;28;20028;-76
2021/07/27 00:52:55;;;;;;;15.55;9.75;;;;;;;26.51;44.41;100784.16;5033338;28;20468;-76
2021/07/27 00:55:21;;;;;;;10.52;8.40;;;;;;;26.41;44.71;100780.28;5033368;28;20029;-75
2021/07/27 00:57:47;;;;;;;10.10;8.70;;;;;;;26.37;44.91;100781.50;5033524;28;20075;-76
2021/07/27 01:00:13;;;;;;;11.50;8.48;;;;;;;26.29;44.65;100778.78;5033163;28;20487;-75
2021/07/27 01:02:39;;;;;;;12.50;8.82;;;;;;;26.37;44.74;100776.69;5033125;28;20030;-76
2021/07/27 01:05:05;;;;;;;12.02;9.02;;;;;;;26.36;44.91;100782.72;5033317;28;20071;-75
2021/07/27 01:07:31;;;;;;;10.15;8.48;;;;;;;26.48;44.59;100771.78;5033009;28;20041;-74
2021/07/27 01:09:57;;;;;;;11.57;8.20;;;;;;;26.42;44.47;100776.25;5032987;28;20061;-74
2021/07/27 01:12:22;;;;;;;9.60;7.72;;;;;;;26.36;44.85;100768.72;5033065;28;20469;-75
2021/07/27 01:14:48;;;;;;;10.73;8.50;;;;;;;26.35;44.57;100776.31;5032993;28;20037;-74
2021/07/27 01:17:14;;;;;;;9.07;7.75;;;;;;;26.41;44.51;100777.47;5033112;28;20129;-75
2021/07/27 01:44:03;;;;;;;10.82;8.23;;;;;;;26.32;44.69;100765.19;5039188;28;20079;-76
2021/07/27 01:46:35;;;;;;;10.82;8.57;;;;;;;26.29;45.13;100755.59;5039146;28;20472;-76
2021/07/27 01:49:01;;;;;;;9.00;7.63;;;;;;;26.29;45.00;100750.00;5039281;28;20022;-89
2021/07/27 01:51:27;;;;;;;9.23;8.32;;;;;;;26.28;44.82;100748.41;5039248;28;20546;-90
2021/07/27 01:53:54;;;;;;;10.00;8.27;;;;;;;26.30;44.71;100746.00;5039182;28;20036;-76
2021/07/27 01:56:22;;;;;;;8.35;7.20;;;;;;;26.26;44.71;100745.25;5039179;28;20113;-74
2021/07/27 01:58:51;;;;;;;9.90;7.93;;;;;;;26.30;44.67;100746.00;5039284;28;20029;-74
2021/07/27 02:01:20;;;;;;;12.40;8.10;;;;;;;26.17;45.09;100744.97;5039227;28;20037;-74
2021/07/27 02:03:46;;;;;;;8.45;7.57;;;;;;;26.25;44.80;100752.06;5039146;28;20480;-74
2021/07/27 02:06:12;;;;;;;11.82;7.78;;;;;;;26.31;44.58;100746.78;5039120;28;20044;-76
2021/07/27 02:08:37;;;;;;;9.55;8.00;;;;;;;26.29;44.59;100745.19;5038958;28;20112;-76
2021/07/27 02:11:05;;;;;;;9.23;8.25;;;;;;;26.38;44.43;100741.88;5039231;28;20030;-89
2021/07/27 02:13:33;;;;;;;8.35;7.18;;;;;;;26.51;44.16;100742.13;5039104;28;20392;-74
2021/07/27 02:16:00;;;;;;;9.00;8.10;;;;;;;26.18;44.89;100738.94;5037784;28;20095;-75
2021/07/27 02:18:26;;;;;;;9.10;8.18;;;;;;;26.13;45.18;100742.19;5039057;28;20105;-76
2021/07/27 02:20:52;;;;;;;9.90;7.57;;;;;;;26.10;45.03;100743.06;5038847;28;20034;-76
2021/07/27 02:23:18;;;;;;;12.95;8.57;;;;;;;25.96;45.29;100740.41;5038747;28;20029;-75
2021/07/27 02:25:44;;;;;;;10.18;8.10;;;;;;;25.88;45.37;100747.31;5038927;28;20100;-74
2021/07/27 02:28:13;;;;;;;8.80;7.90;;;;;;;25.80;45.75;100738.22;5038836;28;20124;-74
2021/07/27 02:30:42;;;;;;;10.45;7.25;;;;;;;25.80;45.66;100734.63;5039196;28;20104;-76
2021/07/27 02:33:08;;;;;;;9.85;7.60;;;;;;;25.87;45.62;100740.13;5039031;28;20113;-74
2021/07/27 02:35:34;;;;;;;8.32;7.35;;;;;;;25.76;45.74;100739.44;5038734;28;20116;-76
2021/07/27 02:38:00;;;;;;;8.10;7.05;;;;;;;25.68;45.87;100735.91;5036796;28;20049;-79
2021/07/27 02:40:25;;;;;;;12.70;8.85;;;;;;;25.85;45.54;100737.75;5037297;28;20052;-76
2021/07/27 02:42:51;;;;;;;9.27;7.88;;;;;;;25.81;45.35;100739.78;5038735;28;20026;-76
2021/07/27 02:45:26;;;;;;;9.13;8.23;;;;;;;25.79;45.23;100733.81;5038058;28;20107;-76
2021/07/27 02:47:54;;;;;;;8.50;7.40;;;;;;;25.82;45.15;100735.78;5039188;28;20025;-89
2021/07/27 02:50:21;;;;;;;9.57;7.40;;;;;;;25.84;45.43;100735.34;5039741;28;20040;-90
2021/07/27 02:52:47;;;;;;;9.40;7.60;;;;;;;25.76;45.18;100733.84;5038958;28;20021;-87
2021/07/27 02:55:13;;;;;;;9.23;6.88;;;;;;;25.76;45.44;100739.44;5035476;28;20032;-90
2021/07/27 02:57:40;;;;;;;7.93;6.80;;;;;;;25.76;45.41;100734.66;5035510;28;20480;-75
2021/07/27 03:00:07;;;;;;;9.18;7.32;;;;;;;25.74;45.44;100737.06;5035249;28;20027;-74
2021/07/27 03:02:35;;;;;;;11.05;7.75;;;;;;;25.67;45.53;100737.91;5035513;28;20029;-76
2021/07/27 03:05:01;;;;;;;9.95;8.02;;;;;;;25.95;44.77;100736.03;5035661;28;20029;-75
2021/07/27 03:07:36;;;;;;;9.05;7.65;;;;;;;25.97;44.80;100739.22;5035431;28;20526;-76
2021/07/27 03:10:18;;;;;;;9.25;7.97;;;;;;;26.16;44.19;100738.56;5033282;28;20091;-76
2021/07/27 03:12:53;;;;;;;10.80;8.50;;;;;;;26.24;44.35;100740.06;5051803;28;20033;-76
2021/07/27 03:15:24;;;;;;;10.10;7.65;;;;;;;26.22;43.99;100741.69;5053711;28;20411;-74
2021/07/27 03:17:58;;;;;;;9.43;7.97;;;;;;;26.17;44.22;100740.16;5055563;28;20044;-76
2021/07/27 03:20:25;;;;;;;9.38;8.25;;;;;;;26.15;44.50;100742.59;5055059;28;20025;-76
2021/07/27 03:22:55;;;;;;;10.70;7.97;;;;;;;25.92;44.81;100743.28;5054737;28;20039;-76
2021/07/27 03:25:21;;;;;;;9.27;8.27;;;;;;;25.98;45.24;100735.19;5055002;28;20379;-89
2021/07/27 03:27:49;;;;;;;9.40;7.85;;;;;;;26.03;44.88;100736.75;5054854;28;20100;-74
2021/07/27 03:30:20;;;;;;;9.73;8.35;;;;;;;26.09;44.76;100737.88;5053241;28;20060;-87
2021/07/27 03:32:46;;;;;;;12.55;8.45;;;;;;;26.12;44.46;100737.03;5054526;28;20056;-90
2021/07/27 03:35:15;;;;;;;9.48;7.97;;;;;;;26.12;44.63;100731.44;5054381;28;20036;-77
2021/07/27 03:37:41;;;;;;;9.27;7.17;;;;;;;26.05;44.88;100729.50;5054226;28;20041;-77
2021/07/27 03:40:08;;;;;;;10.75;7.85;;;;;;;26.00;44.85;100730.78;5054280;28;20525;-75
2021/07/27 03:42:34;;;;;;;11.15;8.70;;;;;;;26.04;45.16;100724.34;5054105;28;20037;-75
2021/07/27 03:45:00;;;;;;;9.55;7.63;;;;;;;26.11;44.81;100724.25;5054226;28;20467;-83
2021/07/27 03:47:25;;;;;;;9.77;7.80;;;;;;;26.11;44.63;100725.03;5054287;28;20860;-78
2021/07/27 03:49:56;;;;;;;9.80;7.80;;;;;;;26.04;45.01;100725.13;5054224;28;20028;-76
2021/07/27 03:52:22;;;;;;;10.00;8.10;;;;;;;25.96;45.00;100715.22;5054239;28;20100;-89
2021/07/27 03:54:49;;;;;;;11.32;7.93;;;;;;;26.03;44.85;100719.94;5054231;28;20032;-90
2021/07/27 03:57:15;;;;;;;10.15;7.80;;;;;;;26.09;44.73;100712.69;5054257;28;20028;-76
2021/07/27 03:59:41;;;;;;;10.90;8.07;;;;;;;26.03;44.77;100712.34;5054096;28;20525;-89
2021/07/27 04:02:06;;;;;;;9.02;7.90;;;;;;;25.97;45.05;100706.41;5053969;28;20029;-74
2021/07/27 04:04:35;;;;;;;8.35;7.43;;;;;;;25.94;44.88;100707.25;5053085;28;20079;-90
2021/07/27 04:07:00;;;;;;;10.63;8.25;;;;;;;25.89;45.30;100709.72;5052756;28;20029;-76
2021/07/27 04:09:28;;;;;;;8.93;7.30;;;;;;;25.75;45.49;100705.06;5053816;28;20082;-74
2021/07/27 04:11:53;;;;;;;11.80;8.10;;;;;;;25.62;45.96;100699.22;5053646;28;20040;-75
2021/07/27 04:14:19;;;;;;;8.88;7.32;;;;;;;25.55;46.10;100704.88;5053839;28;20029;-74
2021/07/27 04:16:44;;;;;;;9.75;8.35;;;;;;;25.54;46.05;100708.88;5053568;28;20032;-76
2021/07/27 04:19:10;;;;;;;11.10;8.20;;;;;;;25.57;45.95;100710.06;5053552;28;20104;-75
2021/07/27 04:21:36;;;;;;;9.77;8.57;;;;;;;25.56;46.01;100708.47;5053648;28;20115;-76
2021/07/27 04:24:02;;;;;;;12.55;9.18;;;;;;;25.55;46.33;100706.91;5053707;28;20480;-74
2021/07/27 04:26:28;;;;;;;10.70;7.60;;;;;;;25.57;46.00;100710.84;5053590;28;20029;-76
2021/07/27 04:28:55;;;;;;;9.95;7.63;;;;;;;25.63;46.05;100708.41;5053590;28;20033;-75
2021/07/27 04:31:21;;;;;;;11.25;8.30;;;;;;;25.64;45.75;100698.78;5053613;28;20025;-76
2021/07/27 04:33:47;;;;;;;12.07;8.73;;;;;;;25.63;45.80;100706.41;5052245;28;20029;-90
2021/07/27 04:36:13;;;;;;;10.75;7.50;;;;;;;25.73;45.57;100707.50;5053422;28;20029;-76
2021/07/27 04:38:39;;;;;;;11.30;8.52;;;;;;;25.61;46.16;100710.81;5053404;28;20041;-76
2021/07/27 04:41:06;;;;;;;9.05;8.10;;;;;;;25.55;46.03;100706.91;5053199;28;20051;-85
2021/07/27 04:43:34;;;;;;;15.35;9.25;;;;;;;25.25;47.14;100700.00;5052533;28;20056;-77
2021/07/27 04:46:00;;;;;;;14.55;8.63;;;;;;;25.14;47.07;100697.28;5052050;28;20028;-76
2021/07/27 04:48:25;;;;;;;25.90;9.55;;;;;;;25.12;47.34;100696.13;5053423;28;20036;-75
2021/07/27 04:50:51;;;;;;;9.35;7.90;;;;;;;25.16;47.26;100696.88;5051795;28;20025;-83
2021/07/27 04:53:26;;;;;;;12.98;8.07;;;;;;;25.01;47.81;100703.75;5051692;28;20029;-75
2021/07/27 04:55:59;;;;;;;9.23;7.85;;;;;;;25.08;47.33;100700.94;5051794;28;20078;-75
2021/07/27 04:58:24;;;;;;;12.45;8.25;;;;;;;25.01;47.72;100696.19;5052982;28;20389;-75
2021/07/27 05:00:50;;;;;;;14.38;9.57;;;;;;;25.02;47.65;100695.00;5053025;28;20036;-89
2021/07/27 05:03:16;;;;;;;12.95;9.65;;;;;;;24.91;47.88;100697.88;5051826;28;20527;-74
2021/07/27 05:05:41;;;;;;;12.18;8.82;;;;;;;24.66;48.41;100690.91;5052826;28;20029;-75
2021/07/27 05:08:07;;;;;;;11.38;8.43;;;;;;;24.80;48.37;100688.00;5051347;28;20044;-76
2021/07/27 05:10:33;;;;;;;13.05;9.45;;;;;;;24.79;47.95;100689.19;5052655;28;20125;-74
2021/07/27 05:12:59;;;;;;;10.32;8.90;;;;;;;24.79;48.06;100683.63;5052283;28;20163;-76
2021/07/27 05:15:25;;;;;;;14.82;9.10;;;;;;;24.90;47.71;100682.31;5052498;28;20025;-77
2021/07/27 05:17:58;;;;;;;16.65;9.77;;;;;;;24.95;47.60;100680.28;5050846;28;20024;-76
2021/07/27 05:20:24;;;;;;;12.07;9.25;;;;;;;25.04;47.27;100684.22;5050654;28;20055;-76
2021/07/27 05:22:50;;;;;;;9.52;8.43;;;;;;;25.05;47.12;100682.22;5049187;28;20032;-76
2021/07/27 05:25:18;;;;;;;16.20;10.07;;;;;;;24.96;47.52;100684.66;5041472;28;20032;-76
2021/07/27 05:27:46;;;;;;;13.30;8.98;;;;;;;24.98;47.28;100687.84;5036816;28;20060;-76
2021/07/27 05:30:13;;;;;;;16.75;10.20;;;;;;;24.95;47.84;100681.06;5050058;28;20396;-76
2021/07/27 05:32:40;;;;;;;17.38;9.40;;;;;;;24.94;47.48;100678.66;5051254;28;20506;-75
2021/07/27 05:35:06;;;;;;;13.52;9.68;;;;;;;24.99;47.44;100681.81;5051723;28;20040;-76
2021/07/27 05:37:32;;;;;;;9.98;8.25;;;;;;;25.08;47.17;100689.75;5051907;28;20105;-79
2021/07/27 05:39:57;;;;;;;20.80;9.20;;;;;;;24.99;47.27;100692.22;5035173;28;20112;-76
2021/07/27 05:42:23;;;;;;;11.73;9.63;;;;;;;25.01;47.37;100692.59;5032441;28;20044;-76
2021/07/27 05:44:49;;;;;;;11.25;8.73;;;;;;;24.96;47.78;100691.03;5031555;28;20033;-74
2021/07/27 05:47:15;;;;;;;12.48;8.32;;;;;;;25.09;47.14;100692.16;5032030;28;20041;-76
2021/07/27 05:49:40;;;;;;;13.57;9.65;;;;;;;24.99;47.61;100693.00;5030513;28;20029;-76
2021/07/27 05:52:11;;;;;;;12.68;8.60;;;;;;;24.97;47.64;100698.22;5030637;28;20044;-75
2021/07/27 05:54:38;;;;;;;11.35;9.15;;;;;;;25.16;47.31;100696.88;5032090;28;20032;-76
2021/07/27 05:57:04;;;;;;;14.02;8.95;;;;;;;25.15;46.96;100709.25;5031919;28;20037;-76
2021/07/27 05:59:29;;;;;;;11.98;8.88;;;;;;;25.03;47.29;100698.59;5032108;28;20087;-77
2021/07/27 06:01:55;;;;;;;17.90;10.18;;;;;;;25.11;47.15;100703.72;5030940;28;20034;-79
2021/07/27 06:04:21;;;;;;;13.60;9.13;;;;;;;25.07;47.48;100707.75;5032305;28;20104;-77
2021/07/27 06:06:47;;;;;;;12.00;9.52;;;;;;;25.24;47.21;100709.59;5042707;28;20112;-76
2021/07/27 06:09:14;;;;;;;13.63;8.80;;;;;;;25.40;46.86;100709.84;5042924;28;20025;-76
2021/07/27 06:11:40;;;;;;;17.08;9.40;;;;;;;25.29;46.93;100711.94;5041449;28;20025;-75
2021/07/27 06:14:07;;;;;;;14.02;9.55;;;;;;;25.32;47.01;100705.53;5043573;28;20418;-76
2021/07/27 06:16:39;;;;;;;17.75;9.70;;;;;;;25.36;47.29;100711.88;5045040;28;20033;-76
2021/07/27 06:19:06;;;;;;;11.10;8.73;;;;;;;25.99;45.47;100712.38;5040702;28;20064;-75
2021/07/27 06:21:32;;;;;;;13.13;8.98;;;;;;;25.43;47.08;100706.19;5032214;28;20033;-75
2021/07/27 06:23:58;;;;;;;12.45;8.82;;;;;;;25.43;47.16;100700.59;5032280;28;20041;-91
2021/07/27 06:26:23;;;;;;;17.85;9.27;;;;;;;25.48;47.14;100715.34;5032331;28;20033;-75
2021/07/27 06:28:50;;;;;;;14.20;9.48;;;;;;;25.53;47.40;100712.09;5040683;28;20060;-75
2021/07/27 06:31:16;;;;;;;14.05;9.70;;;;;;;25.54;47.34;100706.06;5043760;28;20447;-75
2021/07/27 06:33:43;;;;;;;11.57;9.38;;;;;;;25.59;47.32;100702.03;5055424;28;20040;-75
2021/07/27 06:36:13;;;;;;;10.95;8.90;;;;;;;25.66;47.15;100704.75;5055311;28;20115;-76
2021/07/27 06:38:39;;;;;;;17.98;8.55;;;;;;;25.71;47.20;100709.91;5055318;28;20049;-78
2021/07/27 06:41:06;;;;;;;15.75;9.68;;;;;;;25.50;47.42;100701.75;5052183;28;20031;-74
2021/07/27 06:43:32;;;;;;;11.50;8.93;;;;;;;25.48;47.77;100704.16;5054261;28;20083;-75
2021/07/27 06:45:58;;;;;;;11.43;9.00;;;;;;;25.60;47.64;100698.03;5054050;28;20040;-75
2021/07/27 06:48:24;;;;;;;16.30;9.35;;;;;;;25.73;47.41;100699.13;5054263;28;20029;-76
2021/07/27 06:50:50;;;;;;;9.52;8.15;;;;;;;25.63;47.44;100698.00;5053863;28;20032;-75
2021/07/27 06:53:16;;;;;;;17.38;9.98;;;;;;;25.63;47.63;100694.41;5044995;28;20024;-75
2021/07/27 06:55:42;;;;;;;29.10;13.23;;;;;;;25.98;46.83;100696.00;5039398;28;20498;-75
2021/07/27 06:58:07;;;;;;;11.93;8.38;;;;;;;26.26;45.95;100700.44;5017491;28;20407;-75
2021/07/27 07:00:33;;;;;;;12.57;9.05;;;;;;;26.36;46.27;100699.47;5033629;28;20115;-77
2021/07/27 07:02:59;;;;;;;12.10;9.13;;;;;;;26.50;45.65;100704.91;5031274;28;20231;-75
2021/07/27 07:05:24;;;;;;;11.13;9.88;;;;;;;26.63;45.46;100705.13;5039379;28;20031;-78
2021/07/27 07:07:50;;;;;;;10.82;9.70;;;;;;;26.75;45.35;100696.13;5035950;28;20027;-78
2021/07/27 07:10:15;;;;;;;15.30;10.18;;;;;;;26.80;45.32;100701.25;5037880;28;20033;-77
2021/07/27 07:12:41;;;;;;;22.25;11.75;;;;;;;26.75;45.43;100696.13;5038051;28;20407;-77
2021/07/27 07:15:07;;;;;;;17.05;10.25;;;;;;;26.90;45.57;100702.28;5038418;28;20549;-78
2021/07/27 07:17:32;;;;;;;15.00;10.63;;;;;;;27.00;45.43;100697.72;5047210;28;20406;-75
2021/07/27 07:19:58;;;;;;;19.35;11.02;;;;;;;27.17;44.91;100699.44;5053541;28;20070;-75
2021/07/27 07:22:24;;;;;;;17.35;11.13;;;;;;;27.27;45.06;100703.28;5054651;28;20417;-73
2021/07/27 07:24:51;;;;;;;15.40;11.13;;;;;;;27.43;44.64;100706.19;5055010;28;20068;-81
2021/07/27 07:27:17;;;;;;;11.98;10.73;;;;;;;27.47;44.59;100701.31;5053519;28;20024;-73
2021/07/27 07:29:43;;;;;;;23.08;10.70;;;;;;;27.55;44.73;100696.34;5053206;28;20052;-68
2021/07/27 07:32:09;;;;;;;20.70;10.85;;;;;;;27.59;44.79;100695.06;5054047;28;20028;-67
2021/07/27 07:34:35;;;;;;;17.05;12.23;;;;;;;27.74;44.36;100694.81;5054301;28;20029;-69
2021/07/27 07:37:03;;;;;;;22.02;14.50;;;;;;;27.77;44.47;100699.56;5053789;28;20087;-74
2021/07/27 07:39:29;;;;;;;22.40;15.23;;;;;;;27.96;43.82;100706.38;5052535;28;20036;-74
2021/07/27 07:41:55;;;;;;;22.23;14.07;;;;;;;27.92;44.02;100701.63;5053663;28;20029;-73
2021/07/27 07:44:22;;;;;;;16.67;13.15;;;;;;;27.98;44.40;100696.31;5053942;28;20036;-73
2021/07/27 07:46:48;;;;;;;20.63;12.73;;;;;;;28.16;43.85;100698.72;5053908;28;20139;-74
2021/07/27 07:49:14;;;;;;;17.20;13.85;;;;;;;28.39;43.52;100693.00;5053561;28;20613;-74
2021/07/27 07:51:45;;;;;;;19.08;12.27;;;;;;;28.36;43.36;100699.50;5053525;28;20025;-66
2021/07/27 07:54:11;;;;;;;15.02;13.02;;;;;;;28.47;43.32;100697.22;5053580;28;20471;-67
2021/07/27 07:56:36;;;;;;;26.85;13.95;;;;;;;28.70;42.66;100696.28;5052311;28;20108;-66
2021/07/27 07:59:02;;;;;;;18.08;14.93;;;;;;;28.89;41.99;100696.66;5053942;28;20021;-75
2021/07/27 08:01:27;;;;;;;17.33;13.25;;;;;;;28.92;42.05;100687.34;5035980;28;20025;-73
2021/07/27 08:03:53;;;;;;;17.15;13.52;;;;;;;29.14;41.59;100688.38;5037432;28;20235;-70
2021/07/27 08:06:18;;;;;;;22.33;12.63;;;;;;;29.35;41.01;100691.88;5036503;28;20110;-87
2021/07/27 08:08:44;;;;;;;14.38;11.77;;;;;;;29.96;39.54;100688.94;5026000;28;20056;-82
2021/07/27 08:11:11;;;;;;;20.73;12.00;;;;;;;30.16;39.35;100688.00;5014887;28;20472;-74
2021/07/27 08:13:40;;;;;;;16.05;12.52;;;;;;;30.38;38.10;100678.44;5016759;28;20034;-74
2021/07/27 08:16:10;;;;;;;20.30;10.77;;;;;;;30.23;38.20;100680.13;5039781;28;20063;-69
2021/07/27 08:18:36;;;;;;;17.38;11.48;;;;;;;30.13;38.58;100680.44;5053700;28;20108;-70
2021/07/27 08:21:02;;;;;;;20.10;11.55;;;;;;;30.13;38.26;100683.25;5042331;28;20036;-73
2021/07/27 08:23:28;;;;;;;18.70;12.55;;;;;;;29.66;39.78;100684.59;5037101;28;20031;-70
2021/07/27 08:25:53;;;;;;;16.38;13.23;;;;;;;29.52;39.97;100682.97;5017460;28;20421;-73
2021/07/27 08:28:19;;;;;;;21.88;14.20;;;;;;;29.39;39.86;100692.56;5018272;28;20211;-75
2021/07/27 08:30:44;;;;;;;18.45;14.00;;;;;;;29.33;39.90;100697.16;5018116;28;20036;-72
2021/07/27 08:33:10;;;;;;;17.23;15.43;;;;;;;29.31;40.10;100694.78;5036594;28;20018;-77
2021/07/27 08:35:36;;;;;;;17.75;13.55;;;;;;;29.31;40.07;100689.16;5033551;28;20498;-76
2021/07/27 08:38:01;;;;;;;20.50;13.63;;;;;;;29.27;40.19;100691.28;5032612;28;20060;-73
2021/07/27 08:40:34;;;;;;;15.75;13.48;;;;;;;29.20;40.10;100697.88;5034888;28;20509;-72
2021/07/27 08:43:01;;;;;;;24.55;13.70;;;;;;;29.24;39.76;100695.75;5051924;28;20021;-71
2021/07/27 08:45:27;;;;;;;13.65;12.23;;;;;;;28.97;40.22;100700.91;5037683;28;20039;-71
2021/07/27 08:47:52;;;;;;;13.82;12.30;;;;;;;29.08;39.98;100689.38;5045256;28;20650;-72
2021/07/27 08:50:18;;;;;;;17.52;14.30;;;;;;;29.09;39.85;100699.38;5036005;28;20104;-77
2021/07/27 08:52:44;;;;;;;21.00;13.07;;;;;;;29.12;40.03;100690.88;5045671;28;20392;-72
2021/07/27 08:55:11;;;;;;;17.13;9.85;;;;;;;29.18;39.94;100693.94;5032937;28;20018;-83
2021/07/27 08:57:53;;;;;;;12.93;8.50;;;;;;;29.11;39.80;100691.31;5032806;28;20476;-71
2021/07/27 09:00:19;;;;;;;11.68;7.72;;;;;;;29.13;39.77;100694.47;5030920;28;20440;-71
2021/07/27 09:02:44;;;;;;;14.10;9.10;;;;;;;29.12;39.90;100692.88;5032947;28;20068;-71
2021/07/27 09:05:12;;;;;;;13.38;8.07;;;;;;;29.13;40.00;100695.25;5032975;28;20468;-71
2021/07/27 09:07:38;;;;;;;14.65;10.80;;;;;;;29.16;40.24;100699.19;5034273;28;20448;-73
2021/07/27 09:10:22;;;;;;;14.85;8.10;;;;;;;29.18;40.20;100713.63;5023564;28;20021;-83
2021/07/27 09:13:04;;;;;;;11.80;8.48;;;;;;;28.84;40.64;100709.22;5042663;28;20021;-73
2021/07/27 09:15:32;;;;;;;13.20;7.72;;;;;;;28.88;41.02;100697.88;5032191;28;20103;-74
2021/07/27 09:18:00;;;;;;;15.75;7.10;;;;;;;28.99;40.43;100709.69;5035628;28;20025;-75
2021/07/27 09:20:28;;;;;;;11.38;9.18;;;;;;;29.07;40.07;100707.47;5035097;28;20017;-73
2021/07/27 09:22:53;;;;;;;11.65;8.52;;;;;;;29.13;40.13;100709.31;5035905;28;20536;-75
2021/07/27 09:25:24;;;;;;;11.18;8.30;;;;;;;29.39;39.41;100698.97;5049713;28;20025;-74
2021/07/27 09:27:59;;;;;;;18.92;11.15;;;;;;;29.25;39.95;100716.25;5052451;28;20112;-72
2021/07/27 09:30:24;;;;;;;23.13;10.10;;;;;;;29.14;39.94;100707.28;5052556;28;20029;-72
2021/07/27 09:32:50;;;;;;;12.18;9.40;;;;;;;29.11;40.22;100705.38;5052569;28;20021;-72
2021/07/27 09:35:23;;;;;;;15.32;9.38;;;;;;;29.16;39.94;100702.78;5052458;28;20029;-73
2021/07/27 09:38:07;;;;;;;22.73;9.57;;;;;;;29.14;40.17;100705.28;5052378;28;20080;-82
2021/07/27 09:40:35;;;;;;;15.48;9.18;;;;;;;29.25;39.74;100705.00;5048253;28;20036;-73
2021/07/27 09:43:01;;;;;;;16.80;11.77;;;;;;;29.13;40.09;100709.31;5035259;28;20032;-73
2021/07/27 09:45:28;;;;;;;34.80;23.98;;;;;;;29.13;39.95;100706.50;5036204;28;20009;-72
2021/07/27 09:47:54;;;;;;;34.08;16.70;;;;;;;29.23;39.61;100701.81;5029570;28;20075;-71
2021/07/27 09:50:23;;;;;;;13.52;8.38;;;;;;;29.20;39.47;100697.88;5026243;28;20032;-73
2021/07/27 09:52:49;;;;;;;8.32;6.70;;;;;;;29.27;39.23;100696.91;5022406;28;20028;-81
2021/07/27 09:55:15;;;;;;;9.23;7.15;;;;;;;29.25;38.94;100691.72;5016634;28;20021;-78
2021/07/27 09:57:40;;;;;;;17.65;7.95;;;;;;;29.31;38.51;100691.97;5029096;28;20028;-85
2021/07/27 10:00:07;;;;;;;20.77;7.32;;;;;;;29.42;38.18;100692.47;5036382;28;20024;-73
2021/07/27 10:02:42;;;;;;;13.70;7.85;;;;;;;29.42;38.05;100692.47;4998934;28;20045;-82
2021/07/27 10:05:10;;;;;;;12.38;7.28;;;;;;;29.50;37.79;100693.88;5039727;28;20021;-73
2021/07/27 10:07:36;;;;;;;7.32;4.90;;;;;;;29.80;37.57;100689.81;5028727;28;20033;-75
2021/07/27 10:10:11;;;;;;;11.25;4.80;;;;;;;29.95;36.69;100695.03;5033912;28;20027;-73
2021/07/27 10:12:38;;;;;;;10.30;4.72;;;;;;;30.18;36.76;100689.13;5035494;28;20068;-78
2021/07/27 10:15:16;;;;;;;13.65;5.05;;;;;;;30.31;35.99;100689.94;5036222;28;20036;-73
2021/07/27 10:17:50;;;;;;;6.53;3.75;;;;;;;30.26;36.02;100692.53;5031930;28;20044;-74
2021/07/27 10:20:25;;;;;;;9.73;4.10;;;;;;;30.24;35.95;100697.81;5044276;28;20029;-72
2021/07/27 10:22:51;;;;;;;17.85;4.28;;;;;;;30.10;35.79;100691.38;5033614;28;20041;-81
2021/07/27 10:25:17;;;;;;;5.22;3.35;;;;;;;30.03;35.77;100696.41;5025878;28;20033;-73
2021/07/27 10:27:50;;;;;;;4.72;3.70;;;;;;;30.10;35.74;100697.00;5027674;28;20057;-72
2021/07/27 10:30:29;;;;;;;6.88;3.25;;;;;;;30.18;35.42;100691.94;5021601;28;20025;-72
2021/07/27 10:32:54;;;;;;;6.95;3.35;;;;;;;30.28;34.95;100688.00;5021196;28;20071;-81
2021/07/27 10:35:30;;;;;;;8.30;4.22;;;;;;;30.53;34.39;100700.50;5020005;28;20017;-72
2021/07/27 10:38:15;;;;;;;9.27;3.92;;;;;;;30.77;34.02;100696.16;5034112;28;20037;-73
2021/07/27 10:40:42;;;;;;;6.07;4.13;;;;;;;30.63;34.33;100693.75;5034054;28;20271;-80
2021/07/27 10:43:09;;;;;;;15.65;5.43;;;;;;;30.64;34.24;100698.16;5027917;28;20084;-74
2021/07/27 10:45:35;;;;;;;5.03;3.05;;;;;;;30.58;33.87;100697.13;5035792;28;20052;-75
2021/07/27 10:48:01;;;;;;;11.45;4.05;;;;;;;30.57;34.35;100699.16;5040485;28;20029;-74
2021/07/27 10:50:33;;;;;;;5.60;2.53;;;;;;;30.66;34.34;100698.50;5034999;28;20031;-73
2021/07/27 10:53:13;;;;;;;7.18;3.13;;;;;;;30.60;34.08;100694.66;5031511;28;20045;-75
2021/07/27 10:55:45;;;;;;;3.65;2.78;;;;;;;30.77;33.95;100693.31;5065207;28;20434;-74
2021/07/27 10:58:18;;;;;;;4.22;2.88;;;;;;;30.81;33.61;100685.53;5025217;28;20817;-75
2021/07/27 11:00:43;;;;;;;4.05;2.55;;;;;;;30.97;33.84;100683.78;5024602;28;20034;-74
2021/07/27 11:03:09;;;;;;;19.27;3.33;;;;;;;30.97;33.44;100684.59;5015917;28;20476;-74
2021/07/27 11:05:36;;;;;;;5.80;3.33;;;;;;;31.02;33.52;100683.22;5040476;28;20021;-73
2021/07/27 11:08:02;;;;;;;7.32;2.92;;;;;;;31.18;32.90;100683.06;5042085;28;20377;-75
2021/07/27 11:10:29;;;;;;;8.27;3.10;;;;;;;31.21;33.14;100682.13;5048649;28;20032;-82
2021/07/27 11:12:58;;;;;;;19.60;4.80;;;;;;;31.18;33.52;100672.56;5043321;28;20032;-73
2021/07/27 11:15:28;;;;;;;4.45;2.70;;;;;;;31.33;33.15;100670.06;5042655;28;20021;-82
2021/07/27 11:18:02;;;;;;;5.80;2.95;;;;;;;31.46;32.93;100670.78;5045686;28;20040;-73
2021/07/27 11:20:33;;;;;;;4.50;2.88;;;;;;;31.57;32.71;100672.44;5046926;28;20025;-74
2021/07/27 11:23:18;;;;;;;6.88;2.65;;;;;;;31.40;32.06;100672.63;5053489;28;20456;-82
2021/07/27 11:25:53;;;;;;;6.88;2.78;;;;;;;31.35;31.85;100669.59;5052481;28;20087;-72
2021/07/27 11:28:20;;;;;;;5.45;2.95;;;;;;;31.42;31.81;100674.97;5052297;28;20116;-74
2021/07/27 11:30:46;;;;;;;6.80;2.78;;;;;;;31.59;31.83;100672.75;5052971;28;20542;-74
2021/07/27 11:33:12;;;;;;;14.65;3.10;;;;;;;31.61;31.77;100676.72;5053231;28;20032;-73
2021/07/27 11:35:52;;;;;;;4.82;3.00;;;;;;;31.73;31.39;100673.00;5051892;28;20116;-73
2021/07/27 11:38:21;;;;;;;;;;;;;;;31.66;31.26;100678.13;5052489;28;20072;-75
2021/07/27 11:40:47;;;;;;;6.32;3.30;;;;;;;31.41;31.92;100671.38;5037030;28;19954;-73
2021/07/27 11:43:14;;;;;;;5.90;2.80;;;;;;;31.47;31.46;100672.38;5043021;28;20884;-73
2021/07/27 11:45:41;;;;;;;6.20;3.70;;;;;;;31.59;31.09;100672.75;5019847;28;20048;-75